Time;durP1;ratioP1;P1;durP2;ratioP2;P2;SDS_P1;SDS_P2;PMS_P1;PMS_P2;Temp;Humidity;BMP_temperature;BMP_pressure;BME280_temperature;BME280_humidity;BME280_pressure;Samples;Min_cycle;Max_cycle;Signal;HPM_P1;HPM_P2
2023/03/09 00:00:46;;;;;;;1.10;1.00;;;;;;;;;;4973719;28;20062;-57
2023/03/09 00:03:15;;;;;;;1.20;1.10;;;;;;;;;;4972226;28;20065;-57
2023/03/09 00:05:51;;;;;;;2.60;1.17;;;;;;;;;;4972356;28;20089;-57
2023/03/09 00:08:16;;;;;;;1.30;1.15;;;;;;;;;;4972051;28;20030;-58
2023/03/09 00:10:42;;;;;;;3.47;1.35;;;;;;;;;;4971906;28;20535;-57
2023/03/09 00:13:07;;;;;;;2.28;0.90;;;;;;;;;;4971820;28;20415;-57
2023/03/09 00:15:33;;;;;;;2.83;1.10;;;;;;;;;;4967552;28;20031;-57
2023/03/09 00:17:59;;;;;;;2.25;1.23;;;;;;;;;;4970355;28;20435;-57
2023/03/09 00:20:24;;;;;;;2.35;1.20;;;;;;;;;;4971807;28;20051;-57
2023/03/09 00:22:52;;;;;;;2.00;1.10;;;;;;;;;;4971957;28;20077;-57
2023/03/09 00:25:20;;;;;;;1.33;0.98;;;;;;;;;;4972090;28;20412;-58
2023/03/09 00:27:48;;;;;;;2.70;1.10;;;;;;;;;;4967704;28;20038;-57
2023/03/09 00:30:14;;;;;;;2.08;1.10;;;;;;;;;;4971324;28;20042;-57
2023/03/09 00:32:39;;;;;;;2.53;1.20;;;;;;;;;;4970939;28;20051;-57
2023/03/09 00:35:05;;;;;;;0.98;0.98;;;;;;;;;;4971380;28;20030;-57
2023/03/09 00:37:31;;;;;;;1.40;1.30;;;;;;;;;;4972217;28;20027;-58
2023/03/09 00:39:57;;;;;;;3.25;1.25;;;;;;;;;;4970705;28;20517;-57
2023/03/09 00:42:22;;;;;;;1.63;1.13;;;;;;;;;;4970834;28;20169;-56
2023/03/09 00:44:48;;;;;;;2.08;1.10;;;;;;;;;;4972107;28;20523;-58
2023/03/09 00:47:13;;;;;;;3.40;1.30;;;;;;;;;;4971275;28;20034;-56
2023/03/09 00:49:38;;;;;;;2.05;1.20;;;;;;;;;;4970693;28;20046;-57
2023/03/09 00:52:05;;;;;;;2.55;1.52;;;;;;;;;;4971322;28;20113;-58
2023/03/09 00:54:30;;;;;;;5.38;2.13;;;;;;;;;;4970323;28;20045;-57
2023/03/09 00:56:55;;;;;;;2.05;0.98;;;;;;;;;;4969646;28;20540;-57
2023/03/09 00:59:21;;;;;;;3.08;1.10;;;;;;;;;;4970873;28;20019;-57
2023/03/09 01:01:46;;;;;;;3.30;1.33;;;;;;;;;;4971147;28;20042;-57
2023/03/09 01:04:11;;;;;;;3.08;1.20;;;;;;;;;;5002451;28;20118;-57
2023/03/09 01:06:37;;;;;;;3.45;1.00;;;;;;;;;;4971508;28;20027;-57
2023/03/09 01:09:03;;;;;;;2.78;1.05;;;;;;;;;;4972113;28;20034;-57
2023/03/09 01:11:29;;;;;;;1.38;0.90;;;;;;;;;;4968827;28;20074;-57
2023/03/09 01:13:54;;;;;;;3.08;0.95;;;;;;;;;;4970540;28;20038;-56
2023/03/09 01:16:20;;;;;;;1.77;0.80;;;;;;;;;;4966724;28;20061;-57
2023/03/09 01:18:45;;;;;;;0.70;0.70;;;;;;;;;;4970896;28;20038;-56
2023/03/09 01:21:10;;;;;;;0.75;0.73;;;;;;;;;;4969724;28;20034;-57
2023/03/09 01:23:37;;;;;;;1.30;0.70;;;;;;;;;;4969988;28;20401;-56
2023/03/09 01:26:03;;;;;;;0.60;0.60;;;;;;;;;;4970371;28;20027;-57
2023/03/09 01:28:29;;;;;;;1.73;0.60;;;;;;;;;;4970605;28;20065;-57
2023/03/09 01:30:54;;;;;;;0.90;0.70;;;;;;;;;;4969814;28;20071;-57
2023/03/09 01:33:20;;;;;;;1.42;0.70;;;;;;;;;;4970045;28;20027;-57
2023/03/09 01:35:45;;;;;;;0.55;0.55;;;;;;;;;;4970162;28;20022;-57
2023/03/09 01:38:10;;;;;;;0.68;0.68;;;;;;;;;;4971023;28;20030;-57
2023/03/09 01:40:36;;;;;;;0.85;0.70;;;;;;;;;;4969289;28;20030;-57
2023/03/09 01:43:29;;;;;;;1.23;0.70;;;;;;;;;;4969534;28;20057;-57
2023/03/09 01:46:19;;;;;;;0.65;0.63;;;;;;;;;;4968598;28;20392;-57
2023/03/09 01:48:45;;;;;;;1.20;0.70;;;;;;;;;;4969862;28;20015;-57
2023/03/09 01:51:10;;;;;;;2.15;0.80;;;;;;;;;;4969321;28;20393;-56
2023/03/09 01:53:36;;;;;;;1.52;0.63;;;;;;;;;;4970373;28;20388;-57
2023/03/09 01:56:02;;;;;;;0.60;0.60;;;;;;;;;;4969855;28;20113;-57
2023/03/09 01:58:30;;;;;;;1.95;0.80;;;;;;;;;;4970418;28;20027;-56
2023/03/09 02:00:56;;;;;;;0.85;0.63;;;;;;;;;;4969725;28;20034;-56
2023/03/09 02:03:36;;;;;;;1.88;0.60;;;;;;;;;;4969699;28;20034;-56
2023/03/09 02:06:09;;;;;;;1.23;0.52;;;;;;;;;;4971908;28;20062;-56
2023/03/09 02:08:36;;;;;;;0.60;0.60;;;;;;;;;;4967067;28;20058;-56
2023/03/09 02:11:07;;;;;;;0.85;0.63;;;;;;;;;;4969823;28;20066;-56
2023/03/09 02:13:36;;;;;;;0.70;0.70;;;;;;;;;;4968658;28;20026;-56
2023/03/09 02:16:02;;;;;;;1.52;0.60;;;;;;;;;;4970505;28;20030;-56
2023/03/09 02:18:28;;;;;;;1.77;0.80;;;;;;;;;;4970614;28;20030;-56
2023/03/09 02:21:05;;;;;;;1.17;0.77;;;;;;;;;;4968782;28;20034;-56
2023/03/09 02:23:33;;;;;;;0.77;0.70;;;;;;;;;;4968978;28;20495;-56
2023/03/09 02:26:08;;;;;;;1.08;0.70;;;;;;;;;;4969967;28;20348;-56
2023/03/09 02:28:34;;;;;;;1.17;0.80;;;;;;;;;;4970350;28;20046;-56
2023/03/09 02:31:00;;;;;;;1.45;1.13;;;;;;;;;;4968987;28;20113;-56
2023/03/09 02:33:28;;;;;;;1.85;0.70;;;;;;;;;;4969326;28;20034;-56
2023/03/09 02:35:56;;;;;;;1.75;0.98;;;;;;;;;;4970241;28;20034;-56
2023/03/09 02:38:22;;;;;;;1.25;0.63;;;;;;;;;;4966382;28;20030;-56
2023/03/09 02:40:48;;;;;;;1.23;0.73;;;;;;;;;;4969706;28;20037;-57
2023/03/09 02:43:16;;;;;;;1.20;0.60;;;;;;;;;;4969256;28;20039;-56
2023/03/09 02:45:42;;;;;;;0.60;0.60;;;;;;;;;;4968909;28;20058;-56
2023/03/09 02:48:07;;;;;;;2.10;0.95;;;;;;;;;;4969287;28;20061;-57
2023/03/09 02:50:33;;;;;;;0.60;0.60;;;;;;;;;;4967826;28;20033;-57
2023/03/09 02:53:00;;;;;;;0.75;0.70;;;;;;;;;;4969108;28;20499;-56
2023/03/09 02:55:25;;;;;;;3.35;1.83;;;;;;;;;;4970581;28;20058;-57
2023/03/09 02:57:51;;;;;;;3.70;1.17;;;;;;;;;;4966972;28;20062;-57
2023/03/09 03:00:16;;;;;;;0.60;0.60;;;;;;;;;;4972155;28;20026;-58
2023/03/09 03:02:42;;;;;;;0.52;0.52;;;;;;;;;;4973189;28;20396;-57
2023/03/09 03:05:08;;;;;;;1.52;0.80;;;;;;;;;;4974608;28;20023;-56
2023/03/09 03:07:33;;;;;;;1.27;0.60;;;;;;;;;;4973222;28;20034;-57
2023/03/09 03:09:59;;;;;;;1.00;0.68;;;;;;;;;;4972629;28;20041;-57
2023/03/09 03:12:24;;;;;;;1.35;0.60;;;;;;;;;;4973362;28;20443;-56
2023/03/09 03:14:50;;;;;;;1.20;0.70;;;;;;;;;;4973965;28;20523;-57
2023/03/09 03:17:15;;;;;;;0.70;0.70;;;;;;;;;;4973254;28;20031;-57
2023/03/09 03:19:41;;;;;;;3.03;1.50;;;;;;;;;;4972751;28;20042;-57
2023/03/09 03:22:07;;;;;;;0.70;0.70;;;;;;;;;;4973644;28;20080;-57
2023/03/09 03:24:36;;;;;;;0.70;0.70;;;;;;;;;;4973404;28;20043;-56
2023/03/09 03:27:02;;;;;;;0.80;0.80;;;;;;;;;;4972668;28;20067;-57
2023/03/09 03:29:27;;;;;;;1.30;0.80;;;;;;;;;;4972064;28;20065;-57
2023/03/09 03:31:52;;;;;;;2.28;0.80;;;;;;;;;;4970415;28;20078;-57
2023/03/09 03:34:18;;;;;;;2.33;0.80;;;;;;;;;;4972823;28;20345;-57
2023/03/09 03:36:43;;;;;;;0.77;0.68;;;;;;;;;;4972475;28;20054;-57
2023/03/09 03:39:09;;;;;;;0.80;0.80;;;;;;;;;;4972830;28;20026;-57
2023/03/09 03:41:34;;;;;;;0.95;0.70;;;;;;;;;;4972769;28;20121;-57
2023/03/09 03:44:00;;;;;;;1.00;0.98;;;;;;;;;;4973065;28;20034;-57
2023/03/09 03:46:25;;;;;;;2.88;1.10;;;;;;;;;;4972053;28;20121;-57
2023/03/09 03:48:51;;;;;;;1.23;1.10;;;;;;;;;;4973691;28;20109;-57
2023/03/09 03:51:16;;;;;;;4.68;0.98;;;;;;;;;;4972039;28;20117;-57
2023/03/09 03:53:42;;;;;;;1.48;0.90;;;;;;;;;;4973038;28;20102;-55
2023/03/09 03:56:08;;;;;;;3.08;1.15;;;;;;;;;;4972704;28;20407;-55
2023/03/09 03:58:34;;;;;;;1.63;1.10;;;;;;;;;;4973115;28;20038;-57
2023/03/09 04:00:59;;;;;;;0.90;0.90;;;;;;;;;;4971714;28;20035;-57
2023/03/09 04:03:24;;;;;;;0.70;0.60;;;;;;;;;;4973105;28;20795;-57
2023/03/09 04:05:50;;;;;;;0.75;0.60;;;;;;;;;;4973691;28;20500;-56
2023/03/09 04:08:15;;;;;;;1.60;0.90;;;;;;;;;;4972573;28;20031;-57
2023/03/09 04:10:41;;;;;;;1.80;0.95;;;;;;;;;;4971015;28;20095;-56
2023/03/09 04:13:06;;;;;;;1.50;0.85;;;;;;;;;;4972237;28;20022;-57
2023/03/09 04:15:33;;;;;;;2.17;1.50;;;;;;;;;;4972582;28;20030;-57
2023/03/09 04:17:58;;;;;;;2.15;0.88;;;;;;;;;;4972511;28;20627;-56
2023/03/09 04:20:23;;;;;;;7.22;1.35;;;;;;;;;;4972104;28;20042;-56
2023/03/09 04:22:49;;;;;;;4.70;0.65;;;;;;;;;;4972161;28;20035;-56
2023/03/09 04:25:15;;;;;;;0.70;0.70;;;;;;;;;;4973168;28;20027;-56
2023/03/09 04:27:41;;;;;;;1.95;1.10;;;;;;;;;;4972830;28;20084;-56
2023/03/09 04:30:08;;;;;;;2.28;1.10;;;;;;;;;;4971576;28;20118;-56
2023/03/09 04:32:33;;;;;;;1.08;0.57;;;;;;;;;;4971248;28;20582;-56
2023/03/09 04:34:59;;;;;;;3.58;0.80;;;;;;;;;;4967981;28;20114;-56
2023/03/09 04:37:24;;;;;;;2.15;0.70;;;;;;;;;;4972276;28;20397;-56
2023/03/09 04:39:50;;;;;;;1.35;0.75;;;;;;;;;;4971297;28;20484;-56
2023/03/09 04:42:15;;;;;;;1.75;0.70;;;;;;;;;;4971868;28;20030;-58
2023/03/09 04:44:40;;;;;;;2.83;0.98;;;;;;;;;;4972877;28;20089;-57
2023/03/09 04:47:06;;;;;;;1.38;0.70;;;;;;;;;;4972049;28;20046;-57
2023/03/09 04:49:32;;;;;;;2.28;1.33;;;;;;;;;;4971289;28;20110;-55
2023/03/09 04:51:57;;;;;;;4.60;1.60;;;;;;;;;;4971069;28;20035;-56
2023/03/09 04:54:23;;;;;;;1.65;1.33;;;;;;;;;;4971738;28;20066;-57
2023/03/09 04:56:48;;;;;;;4.05;1.05;;;;;;;;;;4972164;28;20046;-58
2023/03/09 04:59:13;;;;;;;1.75;0.90;;;;;;;;;;4970876;28;20033;-58
2023/03/09 05:01:39;;;;;;;2.70;1.27;;;;;;;;;;4969733;28;20042;-58
2023/03/09 05:04:04;;;;;;;2.72;1.02;;;;;;;;;;4974380;28;20027;-58
2023/03/09 05:06:30;;;;;;;1.58;1.05;;;;;;;;;;4972470;28;20034;-58
2023/03/09 05:08:55;;;;;;;2.38;1.25;;;;;;;;;;4971626;28;20041;-58
2023/03/09 05:11:20;;;;;;;4.28;1.17;;;;;;;;;;4969890;28;20026;-58
2023/03/09 05:13:46;;;;;;;3.42;1.08;;;;;;;;;;4971751;28;20074;-58
2023/03/09 05:16:11;;;;;;;5.25;1.40;;;;;;;;;;4970954;28;20400;-57
2023/03/09 05:18:36;;;;;;;5.95;1.17;;;;;;;;;;4970625;28;20037;-57
2023/03/09 05:21:08;;;;;;;3.97;1.30;;;;;;;;;;4969652;28;20034;-58
2023/03/09 05:23:35;;;;;;;5.07;1.40;;;;;;;;;;4971559;28;20076;-58
2023/03/09 05:26:01;;;;;;;5.68;1.50;;;;;;;;;;4971745;28;20085;-58
2023/03/09 05:28:27;;;;;;;7.35;1.30;;;;;;;;;;4971314;28;20110;-58
2023/03/09 05:30:53;;;;;;;6.90;1.40;;;;;;;;;;4971046;28;20038;-58
2023/03/09 05:33:18;;;;;;;7.70;1.70;;;;;;;;;;4970770;28;20401;-58
2023/03/09 05:35:44;;;;;;;9.40;1.73;;;;;;;;;;4970027;28;20396;-57
2023/03/09 05:38:09;;;;;;;7.50;2.38;;;;;;;;;;4970675;28;20042;-56
2023/03/09 05:40:35;;;;;;;6.63;1.45;;;;;;;;;;4969824;28;20117;-55
2023/03/09 05:43:01;;;;;;;3.92;1.70;;;;;;;;;;4970797;28;20071;-56
2023/03/09 05:45:26;;;;;;;2.33;1.50;;;;;;;;;;4970996;28;20031;-56
2023/03/09 05:47:51;;;;;;;7.93;1.67;;;;;;;;;;4971209;28;20034;-56
2023/03/09 05:50:17;;;;;;;4.35;1.58;;;;;;;;;;5002041;28;20030;-56
2023/03/09 05:52:42;;;;;;;6.50;2.33;;;;;;;;;;4971291;28;20105;-55
2023/03/09 05:55:09;;;;;;;7.47;2.20;;;;;;;;;;4971256;28;20030;-55
2023/03/09 05:57:34;;;;;;;4.47;1.70;;;;;;;;;;4970873;28;20166;-53
2023/03/09 06:00:00;;;;;;;6.05;1.90;;;;;;;;;;4969812;28;20470;-55
2023/03/09 06:02:25;;;;;;;5.82;2.20;;;;;;;;;;4971218;28;20138;-56
2023/03/09 06:04:52;;;;;;;8.23;2.20;;;;;;;;;;4970904;28;20044;-54
2023/03/09 06:07:17;;;;;;;5.18;1.95;;;;;;;;;;4970477;28;20030;-55
2023/03/09 06:09:44;;;;;;;10.07;3.67;;;;;;;;;;4969989;28;20385;-56
2023/03/09 06:12:10;;;;;;;5.40;2.10;;;;;;;;;;4970565;28;20042;-56
2023/03/09 06:14:35;;;;;;;8.00;2.15;;;;;;;;;;4966117;28;20031;-56
2023/03/09 06:17:01;;;;;;;7.47;3.05;;;;;;;;;;4969627;28;20031;-55
2023/03/09 06:19:27;;;;;;;15.40;4.82;;;;;;;;;;4969199;28;20489;-57
2023/03/09 06:21:52;;;;;;;9.82;2.97;;;;;;;;;;4969325;28;20038;-55
2023/03/09 06:24:18;;;;;;;9.73;2.78;;;;;;;;;;4970088;28;20069;-55
2023/03/09 06:26:43;;;;;;;8.05;2.33;;;;;;;;;;4968655;28;20035;-55
2023/03/09 06:29:09;;;;;;;6.53;2.13;;;;;;;;;;4969080;28;20031;-55
2023/03/09 06:31:34;;;;;;;8.48;2.10;;;;;;;;;;4971625;28;20381;-56
2023/03/09 06:33:59;;;;;;;3.78;1.42;;;;;;;;;;4969432;28;20037;-55
2023/03/09 06:36:25;;;;;;;8.07;2.47;;;;;;;;;;4970260;28;20038;-56
2023/03/09 06:38:50;;;;;;;8.25;2.45;;;;;;;;;;4970605;28;20030;-54
2023/03/09 06:41:16;;;;;;;5.63;2.33;;;;;;;;;;4969265;28;20026;-54
2023/03/09 06:43:44;;;;;;;7.20;2.08;;;;;;;;;;4970219;28;20453;-54
2023/03/09 06:46:10;;;;;;;3.72;1.80;;;;;;;;;;4969061;28;20022;-55
2023/03/09 06:48:36;;;;;;;4.57;1.73;;;;;;;;;;4970044;28;20546;-55
2023/03/09 06:51:02;;;;;;;5.45;1.95;;;;;;;;;;4969617;28;20097;-55
2023/03/09 06:53:27;;;;;;;3.47;1.80;;;;;;;;;;4969778;28;20122;-56
2023/03/09 06:55:52;;;;;;;5.13;1.88;;;;;;;;;;4968505;28;20121;-56
2023/03/09 06:58:18;;;;;;;9.02;3.63;;;;;;;;;;4972730;28;20022;-55
2023/03/09 07:00:46;;;;;;;6.72;2.42;;;;;;;;;;4971974;28;20481;-55
2023/03/09 07:03:15;;;;;;;4.28;1.88;;;;;;;;;;5000262;28;20030;-55
2023/03/09 07:05:41;;;;;;;7.10;1.50;;;;;;;;;;4970148;28;20034;-55
2023/03/09 07:08:06;;;;;;;7.20;1.77;;;;;;;;;;4969836;28;20404;-55
2023/03/09 07:10:31;;;;;;;9.25;1.50;;;;;;;;;;4969393;28;20046;-56
2023/03/09 07:12:57;;;;;;;4.60;2.15;;;;;;;;;;4969779;28;20605;-56
2023/03/09 07:15:22;;;;;;;7.93;2.03;;;;;;;;;;4969663;28;20027;-55
2023/03/09 07:17:47;;;;;;;4.68;2.13;;;;;;;;;;4968133;28;20062;-55
2023/03/09 07:20:13;;;;;;;6.50;2.00;;;;;;;;;;4968115;28;20035;-55
2023/03/09 07:22:39;;;;;;;7.07;1.60;;;;;;;;;;4968507;28;20555;-54
2023/03/09 07:25:05;;;;;;;3.75;1.60;;;;;;;;;;4966319;28;20046;-56
2023/03/09 07:27:30;;;;;;;3.53;1.52;;;;;;;;;;4968677;28;20261;-56
2023/03/09 07:29:57;;;;;;;1.92;1.60;;;;;;;;;;4967847;28;20500;-55
2023/03/09 07:32:23;;;;;;;5.30;1.50;;;;;;;;;;4968606;28;20039;-55
2023/03/09 07:34:48;;;;;;;4.70;1.60;;;;;;;;;;4967243;28;21366;-55
2023/03/09 07:37:14;;;;;;;5.55;1.90;;;;;;;;;;4968259;28;20042;-56
2023/03/09 07:39:39;;;;;;;3.03;1.40;;;;;;;;;;4968614;28;20022;-56
2023/03/09 07:42:05;;;;;;;4.13;1.40;;;;;;;;;;4967825;28;20030;-56
2023/03/09 07:44:31;;;;;;;7.03;1.48;;;;;;;;;;4967959;28;20516;-55
2023/03/09 07:46:56;;;;;;;4.75;1.60;;;;;;;;;;4972095;28;20177;-56
2023/03/09 07:49:22;;;;;;;4.95;1.70;;;;;;;;;;4969738;28;20035;-56
2023/03/09 07:51:48;;;;;;;2.90;1.58;;;;;;;;;;4972982;28;20115;-56
2023/03/09 07:54:14;;;;;;;4.72;1.77;;;;;;;;;;4973155;28;20022;-56
2023/03/09 07:56:40;;;;;;;5.22;1.50;;;;;;;;;;4973315;28;20049;-57
2023/03/09 07:59:05;;;;;;;3.42;1.60;;;;;;;;;;4974901;28;21311;-56
2023/03/09 08:01:30;;;;;;;6.28;1.60;;;;;;;;;;4974277;28;20042;-55
2023/03/09 08:03:56;;;;;;;3.20;1.50;;;;;;;;;;4972199;28;20027;-55
2023/03/09 08:06:21;;;;;;;4.22;1.40;;;;;;;;;;4973433;28;20026;-55
2023/03/09 08:08:46;;;;;;;3.90;1.40;;;;;;;;;;4972609;28;20027;-55
2023/03/09 08:11:12;;;;;;;2.85;1.10;;;;;;;;;;4971495;28;20038;-56
2023/03/09 08:13:38;;;;;;;4.18;1.20;;;;;;;;;;4972506;28;20143;-56
2023/03/09 08:16:06;;;;;;;3.83;2.10;;;;;;;;;;4974812;28;20034;-55
2023/03/09 08:18:32;;;;;;;7.72;1.35;;;;;;;;;;4974288;28;20026;-55
2023/03/09 08:21:14;;;;;;;6.10;1.13;;;;;;;;;;4971972;28;20035;-55
2023/03/09 08:23:40;;;;;;;2.45;1.00;;;;;;;;;;4971372;28;20146;-55
2023/03/09 08:26:12;;;;;;;3.67;1.45;;;;;;;;;;4972072;28;20034;-56
2023/03/09 08:28:40;;;;;;;2.42;1.20;;;;;;;;;;4973051;28;20022;-55
2023/03/09 08:31:05;;;;;;;5.22;1.25;;;;;;;;;;4968922;28;20026;-56
2023/03/09 08:33:31;;;;;;;3.78;1.27;;;;;;;;;;4969935;28;20023;-56
2023/03/09 08:35:56;;;;;;;2.60;1.13;;;;;;;;;;4970539;28;20018;-55
2023/03/09 08:38:22;;;;;;;5.97;1.10;;;;;;;;;;4969538;28;20439;-56
2023/03/09 08:40:47;;;;;;;1.65;0.90;;;;;;;;;;4970175;28;20026;-56
2023/03/09 08:43:13;;;;;;;6.00;1.33;;;;;;;;;;4971490;28;20027;-54
2023/03/09 08:45:38;;;;;;;5.05;1.08;;;;;;;;;;4972361;28;20026;-55
2023/03/09 08:48:04;;;;;;;5.45;1.30;;;;;;;;;;4971700;28;20378;-55
2023/03/09 08:50:30;;;;;;;6.97;1.63;;;;;;;;;;4971571;28;20031;-56
2023/03/09 08:52:56;;;;;;;3.00;1.30;;;;;;;;;;4969756;28;20030;-56
2023/03/09 08:55:21;;;;;;;2.92;1.27;;;;;;;;;;4971951;28;20119;-55
2023/03/09 08:57:47;;;;;;;3.00;0.95;;;;;;;;;;4970994;28;20030;-54
2023/03/09 09:00:14;;;;;;;3.60;1.10;;;;;;;;;;4968673;28;20058;-56
2023/03/09 09:02:40;;;;;;;4.40;1.60;;;;;;;;;;4970795;28;20104;-55
2023/03/09 09:05:07;;;;;;;6.47;1.80;;;;;;;;;;4969364;28;20097;-56
2023/03/09 09:07:33;;;;;;;3.10;1.30;;;;;;;;;;4970526;28;20134;-56
2023/03/09 09:09:59;;;;;;;4.43;1.65;;;;;;;;;;4970301;28;20484;-56
2023/03/09 09:12:27;;;;;;;2.47;1.00;;;;;;;;;;4969357;28;20038;-55
2023/03/09 09:14:53;;;;;;;7.00;1.20;;;;;;;;;;4968913;28;20086;-56
2023/03/09 09:17:18;;;;;;;2.65;1.42;;;;;;;;;;4967249;28;20026;-57
2023/03/09 09:19:44;;;;;;;3.95;0.90;;;;;;;;;;4965838;28;20035;-56
2023/03/09 09:22:09;;;;;;;2.67;1.17;;;;;;;;;;4966841;28;20030;-55
2023/03/09 09:24:36;;;;;;;3.75;1.75;;;;;;;;;;4968896;28;20085;-55
2023/03/09 09:27:04;;;;;;;5.35;1.25;;;;;;;;;;4967967;28;20106;-56
2023/03/09 09:29:30;;;;;;;2.60;1.02;;;;;;;;;;4966412;28;20030;-56
2023/03/09 09:31:56;;;;;;;4.93;1.30;;;;;;;;;;4966392;28;20213;-55
2023/03/09 09:34:22;;;;;;;2.13;1.23;;;;;;;;;;4967750;28;20113;-55
2023/03/09 09:36:47;;;;;;;1.73;0.80;;;;;;;;;;4967823;28;20391;-55
2023/03/09 09:39:13;;;;;;;4.75;1.10;;;;;;;;;;4971084;28;20115;-55
2023/03/09 09:41:49;;;;;;;2.95;0.98;;;;;;;;;;4970249;28;20027;-55
2023/03/09 09:44:29;;;;;;;2.10;1.08;;;;;;;;;;4970778;28;20077;-55
2023/03/09 09:46:58;;;;;;;4.05;1.23;;;;;;;;;;4970536;28;20078;-55
2023/03/09 09:49:26;;;;;;;2.25;0.93;;;;;;;;;;4970201;28;20491;-56
2023/03/09 09:52:13;;;;;;;3.63;0.90;;;;;;;;;;4972238;28;20098;-55
2023/03/09 09:54:47;;;;;;;1.45;0.80;;;;;;;;;;4967492;28;20069;-55
2023/03/09 09:57:35;;;;;;;2.13;1.02;;;;;;;;;;4971475;28;20039;-56
2023/03/09 10:00:13;;;;;;;2.75;0.80;;;;;;;;;;4969008;28;20037;-55
2023/03/09 10:03:19;;;;;;;5.28;1.17;;;;;;;;;;4969682;28;20038;-57
2023/03/09 10:05:44;;;;;;;5.10;1.25;;;;;;;;;;4999840;28;20061;-55
2023/03/09 10:08:28;;;;;;;4.15;1.20;;;;;;;;;;4969239;28;20519;-57
2023/03/09 10:11:02;;;;;;;1.52;1.05;;;;;;;;;;4969241;28;20227;-55
2023/03/09 10:13:32;;;;;;;2.92;0.95;;;;;;;;;;4969602;28;20030;-56
2023/03/09 10:16:04;;;;;;;7.15;1.30;;;;;;;;;;4967457;28;20035;-56
2023/03/09 10:18:36;;;;;;;6.05;1.38;;;;;;;;;;4969524;28;20402;-56
2023/03/09 10:21:04;;;;;;;1.85;1.10;;;;;;;;;;4966959;28;20078;-56
2023/03/09 10:23:32;;;;;;;9.63;1.38;;;;;;;;;;4970166;28;20022;-57
2023/03/09 10:26:17;;;;;;;5.07;1.33;;;;;;;;;;4970494;28;20035;-56
2023/03/09 10:28:46;;;;;;;2.20;0.90;;;;;;;;;;4969345;28;20022;-57
2023/03/09 10:31:41;;;;;;;5.72;1.13;;;;;;;;;;4965929;28;20035;-55
2023/03/09 10:34:25;;;;;;;19.90;1.88;;;;;;;;;;4968800;28;20041;-57
2023/03/09 10:37:04;;;;;;;5.47;1.30;;;;;;;;;;4967132;28;20117;-56
2023/03/09 10:39:42;;;;;;;4.60;1.38;;;;;;;;;;4966842;28;20297;-56
2023/03/09 10:42:19;;;;;;;3.72;1.40;;;;;;;;;;4966615;28;20026;-56
2023/03/09 10:44:56;;;;;;;4.90;1.15;;;;;;;;;;4969366;28;20081;-56
2023/03/09 10:47:22;;;;;;;5.95;1.20;;;;;;;;;;4968880;28;20031;-56
2023/03/09 10:50:07;;;;;;;4.07;1.10;;;;;;;;;;4969219;28;20031;-56
2023/03/09 10:52:32;;;;;;;6.07;2.38;;;;;;;;;;4966159;28;20528;-55
2023/03/09 10:54:57;;;;;;;5.68;1.50;;;;;;;;;;4970285;28;20107;-57
2023/03/09 10:57:30;;;;;;;5.65;1.60;;;;;;;;;;5002291;28;20041;-57
2023/03/09 11:00:01;;;;;;;4.40;1.10;;;;;;;;;;4968631;28;20050;-57
2023/03/09 11:02:29;;;;;;;2.65;1.38;;;;;;;;;;4968506;28;20022;-57
2023/03/09 11:04:55;;;;;;;4.63;1.30;;;;;;;;;;4969478;28;20043;-56
2023/03/09 11:07:31;;;;;;;5.18;1.15;;;;;;;;;;4967354;28;20113;-57
2023/03/09 11:09:57;;;;;;;5.00;1.38;;;;;;;;;;4967299;28;20077;-57
2023/03/09 11:12:34;;;;;;;3.40;1.40;;;;;;;;;;4966090;28;20027;-57
2023/03/09 11:15:03;;;;;;;8.65;1.50;;;;;;;;;;4968514;28;20050;-56
2023/03/09 11:17:37;;;;;;;3.45;1.13;;;;;;;;;;4969510;28;20047;-56
2023/03/09 11:20:20;;;;;;;1.55;0.82;;;;;;;;;;4968476;28;20031;-57
2023/03/09 11:22:59;;;;;;;10.73;1.50;;;;;;;;;;4971505;28;20031;-56
2023/03/09 11:25:34;;;;;;;3.42;1.17;;;;;;;;;;4971073;28;20034;-57
2023/03/09 11:28:10;;;;;;;7.68;1.67;;;;;;;;;;4972447;28;20492;-56
2023/03/09 11:30:36;;;;;;;7.07;1.58;;;;;;;;;;4969188;28;20034;-56
2023/03/09 11:33:01;;;;;;;5.40;1.05;;;;;;;;;;4970242;28;20400;-57
2023/03/09 11:35:26;;;;;;;6.75;1.00;;;;;;;;;;4967662;28;20056;-57
2023/03/09 11:37:58;;;;;;;6.90;1.10;;;;;;;;;;4971938;28;20118;-56
2023/03/09 11:40:29;;;;;;;4.53;1.27;;;;;;;;;;4969058;28;20515;-56
2023/03/09 11:43:23;;;;;;;7.15;1.40;;;;;;;;;;4971511;28;20042;-57
2023/03/09 11:45:49;;;;;;;1.77;0.82;;;;;;;;;;4970612;28;20070;-56
2023/03/09 11:48:17;;;;;;;5.05;1.50;;;;;;;;;;4972026;28;20523;-56
2023/03/09 11:50:52;;;;;;;4.57;1.30;;;;;;;;;;4966841;28;20023;-56
2023/03/09 11:53:24;;;;;;;4.88;1.30;;;;;;;;;;4970785;28;20034;-57
2023/03/09 11:55:54;;;;;;;2.70;0.90;;;;;;;;;;4973530;28;20089;-57
2023/03/09 11:58:24;;;;;;;3.33;1.08;;;;;;;;;;4971142;28;20023;-57
2023/03/09 12:00:59;;;;;;;4.75;1.73;;;;;;;;;;4971269;28;20038;-57
2023/03/09 12:03:26;;;;;;;5.45;1.38;;;;;;;;;;4971682;28;20035;-57
2023/03/09 12:05:57;;;;;;;4.25;1.20;;;;;;;;;;4970639;28;20468;-57
2023/03/09 12:08:42;;;;;;;5.07;1.13;;;;;;;;;;4970000;28;20035;-57
2023/03/09 12:11:34;;;;;;;5.93;1.20;;;;;;;;;;4968680;28;20488;-58
2023/03/09 12:14:21;;;;;;;2.80;1.10;;;;;;;;;;4970621;28;20436;-57
2023/03/09 12:16:51;;;;;;;7.47;1.08;;;;;;;;;;4970836;28;20050;-57
2023/03/09 12:19:20;;;;;;;5.45;1.20;;;;;;;;;;4970918;28;20074;-57
2023/03/09 12:21:59;;;;;;;5.85;1.50;;;;;;;;;;4971468;28;20029;-56
2023/03/09 12:24:41;;;;;;;4.13;0.95;;;;;;;;;;4971347;28;20070;-54
2023/03/09 12:27:12;;;;;;;4.20;1.15;;;;;;;;;;4972278;28;20026;-55
2023/03/09 12:30:00;;;;;;;4.20;1.10;;;;;;;;;;4970381;28;20034;-56
2023/03/09 12:32:25;;;;;;;3.33;0.90;;;;;;;;;;4969118;28;20582;-57
2023/03/09 12:34:55;;;;;;;4.47;0.80;;;;;;;;;;4969356;28;20125;-58
2023/03/09 12:37:27;;;;;;;6.43;0.85;;;;;;;;;;4968922;28;20039;-56
2023/03/09 12:40:17;;;;;;;2.53;0.90;;;;;;;;;;4966319;28;20050;-57
2023/03/09 12:42:45;;;;;;;3.95;0.95;;;;;;;;;;4968420;28;20042;-57
2023/03/09 12:45:10;;;;;;;3.65;0.90;;;;;;;;;;4971884;28;20200;-56
2023/03/09 12:47:38;;;;;;;4.13;1.05;;;;;;;;;;4970815;28;20129;-57
2023/03/09 12:50:23;;;;;;;2.28;0.80;;;;;;;;;;4966722;28;20034;-57
2023/03/09 12:53:00;;;;;;;2.15;1.08;;;;;;;;;;4970204;28;20433;-56
2023/03/09 12:55:34;;;;;;;4.95;0.77;;;;;;;;;;4968866;28;20074;-57
2023/03/09 12:58:18;;;;;;;11.07;1.40;;;;;;;;;;4970442;28;20046;-57
2023/03/09 13:01:11;;;;;;;3.72;1.25;;;;;;;;;;4966045;28;20504;-56
2023/03/09 13:03:43;;;;;;;5.20;1.02;;;;;;;;;;4969555;28;20033;-57
2023/03/09 13:07:00;;;;;;;5.43;1.80;;;;;;;;;;4967857;28;20616;-56
2023/03/09 13:09:34;;;;;;;4.95;1.15;;;;;;;;;;4959658;28;20030;-56
2023/03/09 13:12:01;;;;;;;3.15;1.25;;;;;;;;;;4969263;28;20112;-56
2023/03/09 13:14:26;;;;;;;3.63;1.27;;;;;;;;;;4968187;28;20035;-57
2023/03/09 13:17:00;;;;;;;5.78;1.10;;;;;;;;;;4968943;28;20054;-57
2023/03/09 13:19:25;;;;;;;5.72;1.10;;;;;;;;;;4967457;28;20572;-56
2023/03/09 13:21:57;;;;;;;2.83;0.82;;;;;;;;;;4968691;28;20023;-57
2023/03/09 13:24:27;;;;;;;2.78;1.02;;;;;;;;;;4969280;28;20030;-56
2023/03/09 13:26:57;;;;;;;4.30;1.25;;;;;;;;;;4968537;28;20503;-56
2023/03/09 13:29:25;;;;;;;4.28;1.60;;;;;;;;;;4969116;28;20069;-56
2023/03/09 13:31:52;;;;;;;4.60;1.10;;;;;;;;;;4967501;28;20118;-56
2023/03/09 13:34:25;;;;;;;4.20;1.10;;;;;;;;;;4970620;28;20041;-56
2023/03/09 13:36:53;;;;;;;2.72;1.00;;;;;;;;;;4968827;28;20119;-55
2023/03/09 13:39:21;;;;;;;5.65;1.42;;;;;;;;;;4968343;28;20034;-56
2023/03/09 13:41:47;;;;;;;6.97;1.33;;;;;;;;;;4968377;28;20022;-56
2023/03/09 13:44:18;;;;;;;5.40;1.02;;;;;;;;;;4968179;28;20031;-58
2023/03/09 13:46:48;;;;;;;5.30;1.48;;;;;;;;;;4966444;28;20030;-56
2023/03/09 13:49:18;;;;;;;3.83;1.85;;;;;;;;;;4968496;28;20504;-57
2023/03/09 13:51:48;;;;;;;4.05;1.40;;;;;;;;;;4964252;28;20035;-56
2023/03/09 13:54:37;;;;;;;3.47;1.48;;;;;;;;;;4970011;28;20080;-55
2023/03/09 13:57:18;;;;;;;4.10;1.20;;;;;;;;;;4967692;28;20373;-56
2023/03/09 13:59:44;;;;;;;2.70;1.27;;;;;;;;;;4967592;28;20114;-56
2023/03/09 14:02:11;;;;;;;4.07;1.40;;;;;;;;;;4968927;28;20113;-56
2023/03/09 14:04:55;;;;;;;7.72;2.08;;;;;;;;;;4972651;28;20080;-57
2023/03/09 14:07:24;;;;;;;3.70;1.00;;;;;;;;;;4967207;28;20041;-57
2023/03/09 14:09:57;;;;;;;4.45;1.30;;;;;;;;;;4969617;28;20619;-57
2023/03/09 14:12:40;;;;;;;4.30;1.50;;;;;;;;;;4970304;28;20019;-56
2023/03/09 14:15:15;;;;;;;4.90;1.30;;;;;;;;;;4970343;28;20045;-57
2023/03/09 14:17:41;;;;;;;2.53;0.80;;;;;;;;;;4970213;28;20656;-56
2023/03/09 14:20:20;;;;;;;6.93;2.50;;;;;;;;;;4969881;28;20035;-56
2023/03/09 14:22:46;;;;;;;4.60;1.60;;;;;;;;;;4968753;28;20035;-56
2023/03/09 14:25:23;;;;;;;4.57;1.25;;;;;;;;;;4969772;28;20041;-55
2023/03/09 14:27:50;;;;;;;6.53;2.25;;;;;;;;;;4968690;28;20062;-56
2023/03/09 14:30:30;;;;;;;4.53;1.10;;;;;;;;;;4968613;28;20109;-57
2023/03/09 14:33:03;;;;;;;4.55;0.80;;;;;;;;;;4968494;28;20030;-57
2023/03/09 14:35:30;;;;;;;3.25;1.15;;;;;;;;;;4970757;28;20395;-54
2023/03/09 14:37:56;;;;;;;3.28;1.10;;;;;;;;;;5001255;28;20485;-56
2023/03/09 14:40:30;;;;;;;4.80;1.25;;;;;;;;;;4963673;28;20034;-56
2023/03/09 14:43:24;;;;;;;5.97;1.38;;;;;;;;;;4969080;28;20042;-56
2023/03/09 14:45:50;;;;;;;5.00;1.23;;;;;;;;;;4966892;28;20027;-57
2023/03/09 14:48:15;;;;;;;6.75;1.42;;;;;;;;;;4970995;28;20097;-56
2023/03/09 14:50:41;;;;;;;4.10;1.40;;;;;;;;;;4967886;28;20126;-56
2023/03/09 14:53:13;;;;;;;5.03;1.40;;;;;;;;;;4971013;28;20034;-56